createdAt,value
2019-03-19T00:00:33.494Z,2.04
2019-03-19T00:05:29.352Z,1.96
2019-03-19T00:10:25.298Z,1.61
2019-03-19T00:15:21.122Z,1.62
2019-03-19T00:20:50.564Z,1.47
2019-03-19T00:26:26.193Z,1.50
2019-03-19T00:31:35.160Z,1.83
2019-03-19T00:36:30.322Z,1.73
2019-03-19T00:42:08.390Z,1.58
2019-03-19T00:47:13.081Z,1.27
2019-03-19T00:52:20.673Z,1.15
2019-03-19T00:57:20.945Z,1.17
2019-03-19T01:03:18.415Z,1.22
2019-03-19T01:08:49.097Z,1.44
2019-03-19T01:14:34.167Z,1.68
2019-03-19T01:19:28.821Z,1.71
2019-03-19T01:24:27.930Z,1.49
2019-03-19T01:29:56.145Z,1.50
2019-03-19T01:35:31.433Z,1.58
2019-03-19T01:40:38.364Z,1.45
2019-03-19T01:45:45.969Z,1.37
2019-03-19T01:51:03.232Z,1.46
2019-03-19T01:56:05.385Z,1.67
2019-03-19T02:01:07.911Z,1.96
2019-03-19T02:06:14.504Z,2.08
2019-03-19T02:11:25.952Z,2.22
2019-03-19T02:16:21.807Z,2.25
2019-03-19T02:21:51.253Z,2.04
2019-03-19T02:27:08.720Z,2.07
2019-03-19T02:32:12.591Z,2.14
2019-03-19T02:37:12.491Z,2.17
2019-03-19T02:42:08.766Z,2.20
2019-03-19T02:47:05.168Z,2.25
2019-03-19T02:52:04.881Z,2.14
2019-03-19T02:57:01.061Z,1.98
2019-03-19T03:01:57.227Z,2.08
2019-03-19T03:06:53.426Z,1.98
2019-03-19T03:11:52.308Z,1.93
2019-03-19T03:16:48.581Z,1.76
2019-03-19T03:21:44.689Z,1.87
2019-03-19T03:26:47.339Z,1.97
2019-03-19T03:31:41.435Z,2.01
2019-03-19T03:36:37.898Z,2.00
2019-03-19T03:41:34.090Z,2.09
2019-03-19T03:46:30.613Z,1.93
2019-03-19T03:51:26.802Z,1.70
2019-03-19T03:56:22.952Z,1.51
2019-03-19T04:01:19.151Z,1.85
2019-03-19T04:06:15.296Z,1.88
2019-03-19T04:11:11.448Z,1.74
2019-03-19T04:16:07.680Z,1.81
2019-03-19T04:21:03.928Z,1.93
2019-03-19T04:26:00.153Z,1.89
2019-03-19T04:30:56.317Z,2.03
2019-03-19T04:35:52.473Z,1.91
2019-03-19T04:40:49.750Z,1.85
2019-03-19T04:45:45.989Z,1.93
2019-03-19T04:50:42.245Z,1.88
2019-03-19T04:55:40.661Z,1.88
2019-03-19T05:00:37.009Z,1.83
2019-03-19T05:05:33.158Z,1.89
2019-03-19T05:10:29.389Z,1.90
2019-03-19T05:15:25.545Z,1.71
2019-03-19T05:20:21.833Z,1.63
2019-03-19T05:25:17.849Z,1.06
2019-03-19T05:30:14.289Z,1.26
2019-03-19T05:35:11.397Z,1.43
2019-03-19T05:40:08.203Z,1.53
2019-03-19T05:45:04.824Z,1.32
2019-03-19T05:50:01.006Z,1.20
2019-03-19T05:54:57.092Z,1.38
2019-03-19T05:59:53.265Z,1.34
2019-03-19T06:04:49.409Z,1.18
2019-03-19T06:09:45.841Z,0.90
2019-03-19T06:14:42.214Z,1.04
2019-03-19T06:19:38.637Z,1.51
2019-03-19T06:24:35.797Z,1.47
2019-03-19T06:29:32.496Z,1.66
2019-03-19T06:34:28.762Z,1.67
2019-03-19T06:39:27.828Z,1.74
2019-03-19T06:44:23.864Z,1.72
2019-03-19T06:49:20.094Z,1.63
2019-03-19T06:54:16.193Z,1.80
2019-03-19T06:59:12.386Z,1.97
2019-03-19T07:04:08.541Z,2.10
2019-03-19T07:09:06.748Z,2.22
2019-03-19T07:14:05.020Z,2.26
2019-03-19T07:19:01.389Z,2.46
2019-03-19T07:23:57.581Z,2.48
2019-03-19T07:28:53.849Z,2.54
2019-03-19T07:33:50.351Z,2.59
2019-03-19T07:38:46.532Z,2.74
2019-03-19T07:43:45.947Z,2.76
2019-03-19T07:48:42.085Z,2.85
2019-03-19T07:53:40.859Z,2.95
2019-03-19T07:58:45.069Z,3.00
2019-03-19T08:03:34.957Z,3.13
2019-03-19T08:08:31.045Z,3.15
2019-03-19T08:13:27.293Z,3.11
2019-03-19T08:18:23.475Z,3.17
2019-03-19T08:23:19.537Z,3.30
2019-03-19T08:28:15.910Z,3.12
2019-03-19T08:33:12.272Z,3.17
2019-03-19T08:38:08.493Z,3.46
2019-03-19T08:43:05.261Z,3.35
2019-03-19T08:48:01.863Z,3.44
2019-03-19T08:52:58.121Z,4.03
2019-03-19T08:57:54.385Z,4.34
2019-03-19T09:02:50.597Z,4.26
2019-03-19T09:07:46.894Z,4.35
2019-03-19T09:12:43.179Z,3.96
2019-03-19T09:17:41.940Z,3.53
2019-03-19T09:22:38.260Z,3.43
2019-03-19T09:27:37.666Z,3.73
2019-03-19T09:32:34.152Z,4.31
2019-03-19T09:37:33.242Z,4.36
2019-03-19T09:42:29.409Z,5.10
2019-03-19T09:47:25.578Z,6.02
2019-03-19T09:52:21.825Z,7.19
2019-03-19T09:57:18.041Z,6.33
2019-03-19T10:02:14.364Z,5.41
2019-03-19T10:07:10.426Z,5.11
2019-03-19T10:12:08.252Z,4.98
2019-03-19T10:17:04.714Z,5.97
2019-03-19T10:22:00.935Z,7.04
2019-03-19T10:26:57.405Z,6.94
2019-03-19T10:31:56.700Z,6.38
2019-03-19T10:36:53.159Z,6.46
2019-03-19T10:41:49.414Z,6.38
2019-03-19T10:46:45.618Z,6.53
2019-03-19T10:51:42.051Z,7.03
2019-03-19T10:56:39.029Z,6.83
2019-03-19T11:01:35.542Z,6.73
2019-03-19T11:06:31.894Z,7.34
2019-03-19T11:11:27.999Z,6.93
2019-03-19T11:16:24.372Z,7.70
2019-03-19T11:21:20.806Z,8.25
2019-03-19T11:26:17.048Z,8.54
2019-03-19T11:31:13.648Z,8.55
2019-03-19T11:36:11.925Z,8.98
2019-03-19T11:41:08.394Z,9.04
2019-03-19T11:46:05.142Z,8.96
2019-03-19T11:51:01.437Z,9.40
2019-03-19T11:55:57.966Z,9.71
2019-03-19T12:00:57.350Z,8.71
2019-03-19T12:05:53.464Z,8.20
2019-03-19T12:10:49.504Z,7.81
2019-03-19T12:15:45.716Z,7.75
2019-03-19T12:20:41.901Z,7.85
2019-03-19T12:25:38.174Z,7.84
2019-03-19T12:30:34.729Z,7.97
2019-03-19T12:35:31.080Z,8.04
2019-03-19T12:40:36.381Z,8.19
2019-03-19T12:45:25.426Z,8.11
2019-03-19T12:50:21.721Z,8.28
2019-03-19T12:55:17.898Z,8.28
2019-03-19T13:00:20.050Z,8.23
2019-03-19T13:05:16.393Z,8.35
2019-03-19T13:10:15.491Z,8.78
2019-03-19T13:15:12.778Z,8.59
2019-03-19T13:20:10.423Z,8.49
2019-03-19T13:25:08.037Z,8.98
2019-03-19T13:30:04.200Z,8.63
2019-03-19T13:35:00.397Z,9.00
2019-03-19T13:39:59.556Z,8.86
2019-03-19T13:44:55.771Z,8.68
2019-03-19T13:49:51.847Z,8.67
2019-03-19T13:54:48.157Z,8.59
2019-03-19T13:59:44.427Z,8.51
2019-03-19T14:04:40.549Z,8.54
2019-03-19T14:09:36.593Z,8.58
2019-03-19T14:14:32.798Z,8.44
2019-03-19T14:19:28.917Z,8.45
2019-03-19T14:24:24.949Z,8.40
2019-03-19T14:29:21.013Z,8.44
2019-03-19T14:34:17.122Z,8.57
2019-03-19T14:39:13.358Z,8.60
2019-03-19T14:44:09.404Z,8.75
2019-03-19T14:49:07.899Z,8.83
2019-03-19T14:54:04.037Z,8.86
2019-03-19T14:59:02.924Z,8.70
2019-03-19T15:03:59.107Z,8.48
2019-03-19T15:08:55.408Z,8.58
2019-03-19T15:13:51.523Z,8.61
2019-03-19T15:18:48.071Z,8.83
2019-03-19T15:23:44.265Z,8.92
2019-03-19T15:28:40.348Z,8.95
2019-03-19T15:33:36.732Z,8.91
2019-03-19T15:38:33.050Z,8.71
2019-03-19T15:43:29.285Z,8.46
2019-03-19T15:48:25.552Z,8.17
2019-03-19T15:53:22.134Z,8.03
2019-03-19T15:58:18.734Z,8.25
2019-03-19T16:03:14.877Z,8.25
2019-03-19T16:08:11.011Z,8.19
2019-03-19T16:13:07.242Z,8.02
2019-03-19T16:18:04.568Z,7.79
2019-03-19T16:23:00.792Z,7.70
2019-03-19T16:27:57.026Z,7.64
2019-03-19T16:32:54.364Z,7.49
2019-03-19T16:37:50.593Z,7.52
2019-03-19T16:42:46.826Z,7.58
2019-03-19T16:47:42.978Z,7.60
2019-03-19T16:52:39.260Z,7.42
2019-03-19T16:57:35.587Z,7.26
2019-03-19T17:02:32.024Z,7.05
2019-03-19T17:07:28.236Z,6.88
2019-03-19T17:12:24.408Z,6.72
2019-03-19T17:17:20.524Z,6.63
2019-03-19T17:22:16.741Z,6.53
2019-03-19T17:27:12.966Z,6.45
2019-03-19T17:32:13.289Z,6.34
2019-03-19T17:37:07.344Z,6.27
2019-03-19T17:42:04.056Z,6.19
2019-03-19T17:47:00.211Z,6.12
2019-03-19T17:51:56.353Z,6.09
2019-03-19T17:56:52.792Z,5.92
2019-03-19T18:01:49.046Z,5.68
2019-03-19T18:06:45.483Z,5.52
2019-03-19T18:11:41.689Z,5.42
2019-03-19T18:16:38.060Z,5.39
2019-03-19T18:21:34.509Z,5.29
2019-03-19T18:32:35.639Z,4.90
2019-03-19T18:37:38.104Z,4.77
2019-03-19T18:42:34.558Z,4.75
2019-03-19T19:05:36.106Z,4.46
2019-03-19T19:22:31.651Z,3.99
2019-03-19T19:28:30.564Z,4.15
2019-03-19T19:39:34.154Z,3.60
2019-03-19T19:50:34.677Z,3.54
2019-03-19T20:01:39.456Z,3.72
2019-03-19T20:06:37.859Z,3.66
2019-03-19T20:11:34.038Z,3.34
2019-03-19T20:16:36.339Z,3.25
2019-03-19T20:33:35.535Z,3.08
2019-03-19T20:38:35.672Z,2.95
2019-03-19T20:43:36.036Z,3.05
2019-03-19T20:48:45.447Z,2.88
2019-03-19T20:53:41.451Z,2.77
2019-03-19T20:58:43.402Z,2.95
2019-03-19T21:03:36.359Z,2.72
2019-03-19T21:08:35.323Z,2.66
2019-03-19T21:13:45.951Z,2.52
2019-03-19T21:18:52.271Z,2.62
2019-03-19T21:24:00.306Z,2.59
2019-03-19T21:28:56.810Z,2.30
2019-03-19T21:33:59.174Z,2.39
2019-03-19T21:38:57.473Z,2.62
2019-03-19T21:43:59.853Z,2.43
2019-03-19T21:48:57.361Z,2.50
2019-03-19T21:53:56.235Z,2.60
2019-03-19T21:58:52.266Z,2.32
2019-03-19T22:03:49.983Z,2.29
2019-03-19T22:08:48.839Z,2.33
2019-03-19T22:13:48.258Z,2.19
2019-03-19T22:18:49.389Z,2.22
2019-03-19T22:23:50.119Z,2.27
2019-03-19T22:29:00.267Z,2.01
2019-03-19T22:34:02.570Z,1.82
2019-03-19T22:39:01.491Z,1.99
2019-03-19T22:44:08.681Z,1.94
2019-03-19T22:49:10.281Z,1.65
2019-03-19T22:54:10.949Z,1.79
2019-03-19T22:59:08.755Z,2.06
2019-03-19T23:04:09.360Z,1.96
2019-03-19T23:09:53.187Z,1.54
2019-03-19T23:15:06.575Z,1.77
2019-03-19T23:20:09.479Z,1.79
2019-03-19T23:25:08.139Z,1.80
2019-03-19T23:30:27.656Z,1.63
2019-03-19T23:35:48.145Z,1.65
2019-03-19T23:40:58.312Z,1.53
2019-03-19T23:46:23.494Z,1.53
2019-03-19T23:51:32.274Z,1.58
2019-03-19T23:56:45.639Z,1.48
